sensor_id;sensor_type;location;lat;lon;timestamp;pressure;altitude;pressure_sealevel;temperature;humidity
69780;BME280;57052;55.602;38.096;2023-02-13T00:00:21;100689.63;;;-4.18;66.95
69780;BME280;57052;55.602;38.096;2023-02-13T00:02:47;100680.91;;;-4.19;67.17
69780;BME280;57052;55.602;38.096;2023-02-13T00:05:13;100676.59;;;-4.36;67.14
69780;BME280;57052;55.602;38.096;2023-02-13T00:07:39;100675.91;;;-4.30;67.12
69780;BME280;57052;55.602;38.096;2023-02-13T00:10:05;100679.56;;;-4.31;67.05
69780;BME280;57052;55.602;38.096;2023-02-13T00:12:31;100662.88;;;-4.31;67.39
69780;BME280;57052;55.602;38.096;2023-02-13T00:14:56;100665.84;;;-4.34;67.05
69780;BME280;57052;55.602;38.096;2023-02-13T00:17:23;100650.81;;;-4.34;67.24
69780;BME280;57052;55.602;38.096;2023-02-13T00:19:50;100656.44;;;-4.29;66.96
69780;BME280;57052;55.602;38.096;2023-02-13T00:22:15;100644.69;;;-4.34;66.86
69780;BME280;57052;55.602;38.096;2023-02-13T00:24:41;100649.66;;;-4.31;66.90
69780;BME280;57052;55.602;38.096;2023-02-13T00:27:07;100645.19;;;-4.39;66.66
69780;BME280;57052;55.602;38.096;2023-02-13T00:29:33;100618.25;;;-4.50;66.71
69780;BME280;57052;55.602;38.096;2023-02-13T00:31:59;100619.09;;;-4.50;67.00
69780;BME280;57052;55.602;38.096;2023-02-13T00:34:26;100632.00;;;-4.39;66.56
69780;BME280;57052;55.602;38.096;2023-02-13T00:36:52;100638.44;;;-4.33;66.55
69780;BME280;57052;55.602;38.096;2023-02-13T00:39:17;100625.38;;;-4.35;66.58
69780;BME280;57052;55.602;38.096;2023-02-13T00:41:43;100618.28;;;-4.34;66.55
69780;BME280;57052;55.602;38.096;2023-02-13T00:44:09;100612.16;;;-4.35;66.47
69780;BME280;57052;55.602;38.096;2023-02-13T00:46:35;100600.28;;;-4.39;66.64
69780;BME280;57052;55.602;38.096;2023-02-13T00:49:01;100598.63;;;-4.40;66.17
69780;BME280;57052;55.602;38.096;2023-02-13T00:51:27;100600.09;;;-4.37;65.99
69780;BME280;57052;55.602;38.096;2023-02-13T00:53:52;100571.72;;;-4.51;66.23
69780;BME280;57052;55.602;38.096;2023-02-13T00:56:18;100579.97;;;-4.46;66.30
69780;BME280;57052;55.602;38.096;2023-02-13T00:58:44;100590.69;;;-4.40;65.98
69780;BME280;57052;55.602;38.096;2023-02-13T01:01:10;100599.13;;;-4.44;65.98
69780;BME280;57052;55.602;38.096;2023-02-13T01:03:35;100600.09;;;-4.45;66.13
69780;BME280;57052;55.602;38.096;2023-02-13T01:06:01;100589.88;;;-4.57;66.33
69780;BME280;57052;55.602;38.096;2023-02-13T01:08:27;100579.31;;;-4.57;66.29
69780;BME280;57052;55.602;38.096;2023-02-13T01:10:53;100570.03;;;-4.61;66.29
69780;BME280;57052;55.602;38.096;2023-02-13T01:13:19;100573.19;;;-4.57;66.31
69780;BME280;57052;55.602;38.096;2023-02-13T01:15:46;100570.72;;;-4.59;66.16
69780;BME280;57052;55.602;38.096;2023-02-13T01:18:15;100572.53;;;-4.59;66.20
69780;BME280;57052;55.602;38.096;2023-02-13T01:20:42;100574.16;;;-4.58;66.19
69780;BME280;57052;55.602;38.096;2023-02-13T01:23:11;100567.06;;;-4.58;66.36
69780;BME280;57052;55.602;38.096;2023-02-13T01:25:41;100582.09;;;-4.58;65.97
69780;BME280;57052;55.602;38.096;2023-02-13T01:28:06;100578.66;;;-4.59;66.08
69780;BME280;57052;55.602;38.096;2023-02-13T01:30:32;100568.53;;;-4.63;66.16
69780;BME280;57052;55.602;38.096;2023-02-13T01:32:58;100570.38;;;-4.72;66.18
69780;BME280;57052;55.602;38.096;2023-02-13T01:35:23;100549.06;;;-4.86;66.28
69780;BME280;57052;55.602;38.096;2023-02-13T01:37:49;100560.31;;;-4.76;66.12
69780;BME280;57052;55.602;38.096;2023-02-13T01:40:14;100552.03;;;-4.73;66.31
69780;BME280;57052;55.602;38.096;2023-02-13T01:42:41;100550.41;;;-4.74;66.26
69780;BME280;57052;55.602;38.096;2023-02-13T01:45:24;100541.66;;;-4.75;66.06
69780;BME280;57052;55.602;38.096;2023-02-13T01:47:54;100536.88;;;-4.71;66.13
69780;BME280;57052;55.602;38.096;2023-02-13T01:50:22;100531.25;;;-4.68;66.22
69780;BME280;57052;55.602;38.096;2023-02-13T01:53:11;100529.94;;;-4.64;65.92
69780;BME280;57052;55.602;38.096;2023-02-13T01:55:44;100530.09;;;-4.66;66.11
69780;BME280;57052;55.602;38.096;2023-02-13T01:58:13;100500.56;;;-4.69;65.93
69780;BME280;57052;55.602;38.096;2023-02-13T02:00:44;100511.78;;;-4.59;65.93
69780;BME280;57052;55.602;38.096;2023-02-13T02:06:17;100491.16;;;-4.72;65.91
69780;BME280;57052;55.602;38.096;2023-02-13T02:08:43;100497.56;;;-4.58;66.28
69780;BME280;57052;55.602;38.096;2023-02-13T02:11:21;100501.03;;;-4.58;66.31
69780;BME280;57052;55.602;38.096;2023-02-13T02:13:50;100494.94;;;-4.58;66.21
69780;BME280;57052;55.602;38.096;2023-02-13T02:16:16;100488.50;;;-4.72;66.38
69780;BME280;57052;55.602;38.096;2023-02-13T02:18:42;100498.25;;;-4.72;66.37
69780;BME280;57052;55.602;38.096;2023-02-13T02:22:22;100492.31;;;-4.74;67.02
69780;BME280;57052;55.602;38.096;2023-02-13T02:35:36;100460.94;;;-4.77;67.12
69780;BME280;57052;55.602;38.096;2023-02-13T02:38:25;100458.00;;;-4.66;66.76
69780;BME280;57052;55.602;38.096;2023-02-13T02:41:01;100449.06;;;-4.65;66.95
69780;BME280;57052;55.602;38.096;2023-02-13T02:46:26;100448.59;;;-4.77;67.08
69780;BME280;57052;55.602;38.096;2023-02-13T02:52:17;100450.25;;;-4.84;67.29
69780;BME280;57052;55.602;38.096;2023-02-13T02:55:06;100444.13;;;-4.84;67.75
69780;BME280;57052;55.602;38.096;2023-02-13T02:57:44;100436.34;;;-4.86;67.66
69780;BME280;57052;55.602;38.096;2023-02-13T03:00:51;100421.19;;;-5.00;67.53
69780;BME280;57052;55.602;38.096;2023-02-13T03:03:37;100432.41;;;-4.98;67.66
69780;BME280;57052;55.602;38.096;2023-02-13T03:06:26;100426.66;;;-5.01;67.73
69780;BME280;57052;55.602;38.096;2023-02-13T03:09:00;100419.69;;;-5.02;67.70
69780;BME280;57052;55.602;38.096;2023-02-13T03:11:49;100416.75;;;-4.99;67.95
69780;BME280;57052;55.602;38.096;2023-02-13T03:14:34;100416.41;;;-5.04;67.99
69780;BME280;57052;55.602;38.096;2023-02-13T03:17:01;100411.97;;;-5.04;67.91
69780;BME280;57052;55.602;38.096;2023-02-13T03:20:19;100419.38;;;-4.99;68.12
69780;BME280;57052;55.602;38.096;2023-02-13T03:23:14;100408.50;;;-4.96;68.17
69780;BME280;57052;55.602;38.096;2023-02-13T03:25:56;100411.28;;;-4.90;68.13
69780;BME280;57052;55.602;38.096;2023-02-13T03:29:08;100413.59;;;-4.87;68.04
69780;BME280;57052;55.602;38.096;2023-02-13T03:31:51;100400.72;;;-4.90;68.21
69780;BME280;57052;55.602;38.096;2023-02-13T03:34:31;100392.81;;;-4.90;67.55
69780;BME280;57052;55.602;38.096;2023-02-13T03:37:27;100390.00;;;-4.88;68.28
69780;BME280;57052;55.602;38.096;2023-02-13T03:40:19;100387.03;;;-4.93;68.10
69780;BME280;57052;55.602;38.096;2023-02-13T03:42:53;100385.88;;;-4.91;68.08
69780;BME280;57052;55.602;38.096;2023-02-13T03:45:36;100341.22;;;-5.16;68.63
69780;BME280;57052;55.602;38.096;2023-02-13T03:48:36;100378.13;;;-4.84;68.68
69780;BME280;57052;55.602;38.096;2023-02-13T03:51:30;100375.50;;;-4.92;69.57
69780;BME280;57052;55.602;38.096;2023-02-13T03:54:00;100373.81;;;-4.85;68.25
69780;BME280;57052;55.602;38.096;2023-02-13T03:56:28;100362.75;;;-4.81;68.16
69780;BME280;57052;55.602;38.096;2023-02-13T03:59:20;100365.72;;;-4.76;68.20
69780;BME280;57052;55.602;38.096;2023-02-13T04:07:06;100358.44;;;-4.66;68.24
69780;BME280;57052;55.602;38.096;2023-02-13T04:09:37;100346.72;;;-4.63;68.28
69780;BME280;57052;55.602;38.096;2023-02-13T04:12:18;100359.06;;;-4.56;68.46
69780;BME280;57052;55.602;38.096;2023-02-13T04:15:10;100356.81;;;-4.59;68.73
69780;BME280;57052;55.602;38.096;2023-02-13T04:17:43;100358.41;;;-4.49;68.20
69780;BME280;57052;55.602;38.096;2023-02-13T04:20:10;100344.88;;;-4.46;67.94
69780;BME280;57052;55.602;38.096;2023-02-13T04:22:46;100347.31;;;-4.37;68.26
69780;BME280;57052;55.602;38.096;2023-02-13T04:25:15;100342.34;;;-4.32;68.01
69780;BME280;57052;55.602;38.096;2023-02-13T04:27:43;100329.47;;;-4.35;68.03
69780;BME280;57052;55.602;38.096;2023-02-13T04:30:09;100348.41;;;-4.23;67.91
69780;BME280;57052;55.602;38.096;2023-02-13T04:32:35;100332.06;;;-4.19;67.84
69780;BME280;57052;55.602;38.096;2023-02-13T04:35:01;100331.03;;;-4.18;67.65
69780;BME280;57052;55.602;38.096;2023-02-13T04:37:28;100326.88;;;-4.12;68.03
69780;BME280;57052;55.602;38.096;2023-02-13T04:39:54;100313.69;;;-4.12;67.64
69780;BME280;57052;55.602;38.096;2023-02-13T04:42:19;100284.19;;;-4.24;67.67
69780;BME280;57052;55.602;38.096;2023-02-13T04:44:45;100290.72;;;-4.12;67.83
69780;BME280;57052;55.602;38.096;2023-02-13T04:47:10;100283.78;;;-4.13;67.99
69780;BME280;57052;55.602;38.096;2023-02-13T04:49:36;100293.81;;;-4.08;67.99
69780;BME280;57052;55.602;38.096;2023-02-13T04:52:02;100294.31;;;-4.05;68.08
69780;BME280;57052;55.602;38.096;2023-02-13T04:54:28;100298.59;;;-4.04;68.14
69780;BME280;57052;55.602;38.096;2023-02-13T04:56:53;100286.59;;;-4.14;67.74
69780;BME280;57052;55.602;38.096;2023-02-13T04:59:19;100294.66;;;-4.08;68.21
69780;BME280;57052;55.602;38.096;2023-02-13T05:01:44;100269.09;;;-4.15;67.91
69780;BME280;57052;55.602;38.096;2023-02-13T05:04:10;100286.69;;;-4.00;68.11
69780;BME280;57052;55.602;38.096;2023-02-13T05:06:40;100276.75;;;-3.98;68.13
69780;BME280;57052;55.602;38.096;2023-02-13T05:09:06;100284.44;;;-3.88;68.12
69780;BME280;57052;55.602;38.096;2023-02-13T05:11:32;100277.19;;;-3.86;68.25
69780;BME280;57052;55.602;38.096;2023-02-13T05:13:57;100273.41;;;-3.92;67.90
69780;BME280;57052;55.602;38.096;2023-02-13T05:16:23;100270.03;;;-3.85;68.19
69780;BME280;57052;55.602;38.096;2023-02-13T05:18:48;100262.41;;;-3.80;68.36
69780;BME280;57052;55.602;38.096;2023-02-13T05:21:14;100253.16;;;-3.76;68.16
69780;BME280;57052;55.602;38.096;2023-02-13T05:23:58;100246.16;;;-3.69;68.31
69780;BME280;57052;55.602;38.096;2023-02-13T05:26:24;100242.97;;;-3.65;67.83
69780;BME280;57052;55.602;38.096;2023-02-13T05:28:49;100223.53;;;-3.72;68.28
69780;BME280;57052;55.602;38.096;2023-02-13T05:31:33;100227.22;;;-3.58;68.29
69780;BME280;57052;55.602;38.096;2023-02-13T05:33:59;100224.38;;;-3.57;67.87
69780;BME280;57052;55.602;38.096;2023-02-13T05:36:25;100219.72;;;-3.55;68.32
69780;BME280;57052;55.602;38.096;2023-02-13T05:38:51;100218.38;;;-3.51;68.28
69780;BME280;57052;55.602;38.096;2023-02-13T05:41:16;100221.97;;;-3.44;68.28
69780;BME280;57052;55.602;38.096;2023-02-13T05:43:42;100229.00;;;-3.36;68.09
69780;BME280;57052;55.602;38.096;2023-02-13T05:46:08;100232.44;;;-3.36;67.62
69780;BME280;57052;55.602;38.096;2023-02-13T05:48:34;100230.47;;;-3.34;68.15
69780;BME280;57052;55.602;38.096;2023-02-13T05:51:00;100222.53;;;-3.34;67.94
69780;BME280;57052;55.602;38.096;2023-02-13T05:53:26;100224.34;;;-3.34;68.02
69780;BME280;57052;55.602;38.096;2023-02-13T05:55:54;100217.47;;;-3.43;68.11
69780;BME280;57052;55.602;38.096;2023-02-13T05:58:20;100230.34;;;-3.40;68.89
69780;BME280;57052;55.602;38.096;2023-02-13T06:00:46;100234.28;;;-3.36;68.43
69780;BME280;57052;55.602;38.096;2023-02-13T06:03:12;100221.69;;;-3.34;68.68
69780;BME280;57052;55.602;38.096;2023-02-13T06:05:38;100227.28;;;-3.29;68.33
69780;BME280;57052;55.602;38.096;2023-02-13T06:08:04;100218.69;;;-3.31;68.54
69780;BME280;57052;55.602;38.096;2023-02-13T06:10:29;100209.56;;;-3.29;68.63
69780;BME280;57052;55.602;38.096;2023-02-13T06:12:55;100213.22;;;-3.30;68.14
69780;BME280;57052;55.602;38.096;2023-02-13T06:15:21;100220.44;;;-3.23;68.22
69780;BME280;57052;55.602;38.096;2023-02-13T06:17:46;100210.13;;;-3.18;68.43
69780;BME280;57052;55.602;38.096;2023-02-13T06:20:12;100216.50;;;-3.13;68.18
69780;BME280;57052;55.602;38.096;2023-02-13T06:22:37;100223.72;;;-3.07;68.39
69780;BME280;57052;55.602;38.096;2023-02-13T06:25:03;100225.66;;;-3.01;67.97
69780;BME280;57052;55.602;38.096;2023-02-13T06:27:30;100210.56;;;-3.00;68.23
69780;BME280;57052;55.602;38.096;2023-02-13T06:29:56;100216.25;;;-3.03;68.23
69780;BME280;57052;55.602;38.096;2023-02-13T06:32:21;100216.88;;;-3.01;68.36
69780;BME280;57052;55.602;38.096;2023-02-13T06:34:47;100214.50;;;-2.96;68.00
69780;BME280;57052;55.602;38.096;2023-02-13T06:37:12;100204.34;;;-2.93;67.98
69780;BME280;57052;55.602;38.096;2023-02-13T06:39:38;100187.41;;;-2.98;67.99
69780;BME280;57052;55.602;38.096;2023-02-13T06:42:03;100193.22;;;-3.03;68.20
69780;BME280;57052;55.602;38.096;2023-02-13T06:44:29;100206.47;;;-2.88;68.40
69780;BME280;57052;55.602;38.096;2023-02-13T06:46:54;100195.75;;;-2.80;68.28
69780;BME280;57052;55.602;38.096;2023-02-13T06:49:20;100194.78;;;-2.79;68.51
69780;BME280;57052;55.602;38.096;2023-02-13T06:51:46;100185.56;;;-2.83;68.11
69780;BME280;57052;55.602;38.096;2023-02-13T06:54:11;100185.28;;;-2.88;68.32
69780;BME280;57052;55.602;38.096;2023-02-13T06:56:37;100154.69;;;-3.05;68.98
69780;BME280;57052;55.602;38.096;2023-02-13T06:59:02;100154.97;;;-3.00;68.48
69780;BME280;57052;55.602;38.096;2023-02-13T07:01:28;100166.00;;;-2.82;68.79
69780;BME280;57052;55.602;38.096;2023-02-13T07:03:54;100154.59;;;-2.83;68.53
69780;BME280;57052;55.602;38.096;2023-02-13T07:06:20;100161.59;;;-2.75;68.50
69780;BME280;57052;55.602;38.096;2023-02-13T07:08:46;100153.75;;;-2.69;68.44
69780;BME280;57052;55.602;38.096;2023-02-13T07:11:18;100158.19;;;-2.54;69.16
69780;BME280;57052;55.602;38.096;2023-02-13T07:13:44;100155.59;;;-2.48;68.64
69780;BME280;57052;55.602;38.096;2023-02-13T07:16:10;100116.16;;;-2.58;68.57
69780;BME280;57052;55.602;38.096;2023-02-13T07:18:36;100147.41;;;-2.32;68.86
69780;BME280;57052;55.602;38.096;2023-02-13T07:21:02;100141.28;;;-2.32;68.39
69780;BME280;57052;55.602;38.096;2023-02-13T07:23:28;100128.63;;;-2.37;68.89
69780;BME280;57052;55.602;38.096;2023-02-13T07:25:53;100136.06;;;-2.26;68.79
69780;BME280;57052;55.602;38.096;2023-02-13T07:28:19;100093.84;;;-2.48;68.78
69780;BME280;57052;55.602;38.096;2023-02-13T07:30:44;100137.38;;;-2.15;68.78
69780;BME280;57052;55.602;38.096;2023-02-13T07:33:10;100130.72;;;-2.11;68.84
69780;BME280;57052;55.602;38.096;2023-02-13T07:35:36;100129.88;;;-2.12;68.93
69780;BME280;57052;55.602;38.096;2023-02-13T07:38:03;100082.56;;;-2.36;68.55
69780;BME280;57052;55.602;38.096;2023-02-13T07:40:29;100119.72;;;-2.08;68.46
69780;BME280;57052;55.602;38.096;2023-02-13T07:42:55;100121.59;;;-2.02;68.43
69780;BME280;57052;55.602;38.096;2023-02-13T07:45:20;100079.84;;;-2.21;68.72
69780;BME280;57052;55.602;38.096;2023-02-13T07:47:46;100113.38;;;-1.86;68.46
69780;BME280;57052;55.602;38.096;2023-02-13T07:50:15;100113.63;;;-1.81;68.47
69780;BME280;57052;55.602;38.096;2023-02-13T07:52:40;100111.59;;;-1.79;68.60
69780;BME280;57052;55.602;38.096;2023-02-13T07:55:07;100105.47;;;-1.79;67.89
69780;BME280;57052;55.602;38.096;2023-02-13T07:57:32;100079.50;;;-1.84;68.26
69780;BME280;57052;55.602;38.096;2023-02-13T07:59:58;100097.41;;;-1.65;68.57
69780;BME280;57052;55.602;38.096;2023-02-13T08:02:24;100083.88;;;-1.70;68.51
69780;BME280;57052;55.602;38.096;2023-02-13T08:04:49;100087.00;;;-1.60;67.89
69780;BME280;57052;55.602;38.096;2023-02-13T08:07:15;100087.25;;;-1.55;68.48
69780;BME280;57052;55.602;38.096;2023-02-13T08:09:44;100087.50;;;-1.50;67.95
69780;BME280;57052;55.602;38.096;2023-02-13T08:12:30;100079.13;;;-1.53;67.79
69780;BME280;57052;55.602;38.096;2023-02-13T08:14:57;100087.72;;;-1.45;68.22
69780;BME280;57052;55.602;38.096;2023-02-13T08:17:22;100065.19;;;-1.55;68.28
69780;BME280;57052;55.602;38.096;2023-02-13T08:19:48;100081.59;;;-1.45;68.00
69780;BME280;57052;55.602;38.096;2023-02-13T08:22:14;100054.34;;;-1.60;68.53
69780;BME280;57052;55.602;38.096;2023-02-13T08:24:39;100063.59;;;-1.50;68.30
69780;BME280;57052;55.602;38.096;2023-02-13T08:27:05;100058.91;;;-1.48;68.72
69780;BME280;57052;55.602;38.096;2023-02-13T08:29:30;100035.78;;;-1.60;68.48
69780;BME280;57052;55.602;38.096;2023-02-13T08:31:57;100056.44;;;-1.56;68.97
69780;BME280;57052;55.602;38.096;2023-02-13T08:34:22;100049.91;;;-1.53;68.50
69780;BME280;57052;55.602;38.096;2023-02-13T08:36:48;100036.66;;;-1.53;68.69
69780;BME280;57052;55.602;38.096;2023-02-13T08:39:14;100038.88;;;-1.50;69.04
69780;BME280;57052;55.602;38.096;2023-02-13T08:41:39;100036.50;;;-1.39;68.60
69780;BME280;57052;55.602;38.096;2023-02-13T08:44:06;100019.97;;;-1.41;68.71
69780;BME280;57052;55.602;38.096;2023-02-13T08:46:32;100027.13;;;-1.35;69.05
69780;BME280;57052;55.602;38.096;2023-02-13T08:48:57;100021.81;;;-1.41;68.66
69780;BME280;57052;55.602;38.096;2023-02-13T08:51:23;100016.72;;;-1.36;68.78
69780;BME280;57052;55.602;38.096;2023-02-13T08:53:48;100023.31;;;-1.25;69.07
69780;BME280;57052;55.602;38.096;2023-02-13T08:56:14;100010.66;;;-1.17;68.64
69780;BME280;57052;55.602;38.096;2023-02-13T08:58:39;100000.66;;;-1.15;68.95
69780;BME280;57052;55.602;38.096;2023-02-13T09:01:06;99998.44;;;-1.05;69.00
69780;BME280;57052;55.602;38.096;2023-02-13T09:03:33;99998.03;;;-1.02;68.82
69780;BME280;57052;55.602;38.096;2023-02-13T09:05:59;99988.25;;;-1.01;68.81
69780;BME280;57052;55.602;38.096;2023-02-13T09:08:25;99980.47;;;-1.03;68.08
69780;BME280;57052;55.602;38.096;2023-02-13T09:11:01;99991.31;;;-0.91;69.13
69780;BME280;57052;55.602;38.096;2023-02-13T09:13:29;99970.88;;;-0.97;69.06
69780;BME280;57052;55.602;38.096;2023-02-13T09:15:59;99987.06;;;-0.79;68.70
69780;BME280;57052;55.602;38.096;2023-02-13T09:18:26;99980.72;;;-0.72;68.78
69780;BME280;57052;55.602;38.096;2023-02-13T09:21:04;99974.38;;;-0.77;69.12
69780;BME280;57052;55.602;38.096;2023-02-13T09:23:34;99979.50;;;-0.69;68.57
69780;BME280;57052;55.602;38.096;2023-02-13T09:26:02;99973.19;;;-0.68;68.76
69780;BME280;57052;55.602;38.096;2023-02-13T09:28:32;99967.22;;;-0.70;68.54
69780;BME280;57052;55.602;38.096;2023-02-13T09:30:58;99956.19;;;-0.67;69.08
69780;BME280;57052;55.602;38.096;2023-02-13T09:33:25;99968.88;;;-0.49;68.97
69780;BME280;57052;55.602;38.096;2023-02-13T09:35:51;99954.75;;;-0.50;68.56
69780;BME280;57052;55.602;38.096;2023-02-13T09:38:17;99969.91;;;-0.37;68.63
69780;BME280;57052;55.602;38.096;2023-02-13T09:43:30;99958.22;;;-0.30;68.92
69780;BME280;57052;55.602;38.096;2023-02-13T09:46:20;99940.88;;;-0.39;68.86
69780;BME280;57052;55.602;38.096;2023-02-13T09:48:47;99952.91;;;-0.30;68.73
69780;BME280;57052;55.602;38.096;2023-02-13T09:51:17;99945.34;;;-0.26;68.88
69780;BME280;57052;55.602;38.096;2023-02-13T09:54:12;99936.56;;;-0.27;69.64
69780;BME280;57052;55.602;38.096;2023-02-13T09:57:01;99927.56;;;-0.26;69.08
69780;BME280;57052;55.602;38.096;2023-02-13T10:17:01;99894.88;;;0.25;69.18
69780;BME280;57052;55.602;38.096;2023-02-13T10:19:40;99898.94;;;0.34;69.25
69780;BME280;57052;55.602;38.096;2023-02-13T10:22:13;99889.06;;;0.47;69.20
69780;BME280;57052;55.602;38.096;2023-02-13T10:25:15;99890.03;;;0.53;69.55
69780;BME280;57052;55.602;38.096;2023-02-13T10:27:47;99879.13;;;0.61;68.40
69780;BME280;57052;55.602;38.096;2023-02-13T10:30:38;99875.63;;;0.60;69.03
69780;BME280;57052;55.602;38.096;2023-02-13T10:33:50;99876.88;;;0.64;69.97
69780;BME280;57052;55.602;38.096;2023-02-13T10:36:03;99880.69;;;0.75;68.39
69780;BME280;57052;55.602;38.096;2023-02-13T10:38:33;99864.97;;;0.67;68.32
69780;BME280;57052;55.602;38.096;2023-02-13T10:44:11;99875.38;;;0.75;68.34
69780;BME280;57052;55.602;38.096;2023-02-13T10:47:28;99872.53;;;0.70;69.08
69780;BME280;57052;55.602;38.096;2023-02-13T10:53:18;99868.81;;;0.71;68.93
69780;BME280;57052;55.602;38.096;2023-02-13T10:56:25;99851.69;;;0.60;68.97
69780;BME280;57052;55.602;38.096;2023-02-13T10:59:07;99858.59;;;0.68;68.55
69780;BME280;57052;55.602;38.096;2023-02-13T11:01:48;99853.31;;;0.61;68.92
69780;BME280;57052;55.602;38.096;2023-02-13T11:04:18;99841.00;;;0.67;69.04
69780;BME280;57052;55.602;38.096;2023-02-13T11:06:54;99828.69;;;0.66;69.15
69780;BME280;57052;55.602;38.096;2023-02-13T11:09:20;99812.34;;;0.62;68.67
69780;BME280;57052;55.602;38.096;2023-02-13T11:11:46;99823.28;;;0.79;68.82
69780;BME280;57052;55.602;38.096;2023-02-13T11:14:20;99822.22;;;0.87;68.80
69780;BME280;57052;55.602;38.096;2023-02-13T11:19:18;99808.16;;;0.98;68.58
69780;BME280;57052;55.602;38.096;2023-02-13T11:21:46;99816.94;;;1.05;68.32
69780;BME280;57052;55.602;38.096;2023-02-13T11:24:22;99801.13;;;1.10;69.30
69780;BME280;57052;55.602;38.096;2023-02-13T11:26:56;99798.38;;;1.16;68.52
69780;BME280;57052;55.602;38.096;2023-02-13T11:29:30;99792.63;;;1.19;68.52
69780;BME280;57052;55.602;38.096;2023-02-13T11:34:40;99786.47;;;1.19;68.68
69780;BME280;57052;55.602;38.096;2023-02-13T11:39:41;99806.47;;;1.28;68.14
69780;BME280;57052;55.602;38.096;2023-02-13T11:44:50;99793.44;;;1.20;68.84
69780;BME280;57052;55.602;38.096;2023-02-13T11:47:29;99792.47;;;1.14;69.13
69780;BME280;57052;55.602;38.096;2023-02-13T11:49:57;99783.22;;;1.17;69.11
69780;BME280;57052;55.602;38.096;2023-02-13T11:52:26;99781.13;;;1.19;68.76
69780;BME280;57052;55.602;38.096;2023-02-13T11:55:26;99778.69;;;1.17;70.11
69780;BME280;57052;55.602;38.096;2023-02-13T12:00:31;99767.44;;;1.34;69.11
69780;BME280;57052;55.602;38.096;2023-02-13T12:03:02;99777.53;;;1.32;69.46
69780;BME280;57052;55.602;38.096;2023-02-13T12:06:12;99754.88;;;1.22;69.79
69780;BME280;57052;55.602;38.096;2023-02-13T12:08:41;99764.19;;;1.32;69.24
69780;BME280;57052;55.602;38.096;2023-02-13T12:13:52;99746.69;;;1.36;69.34
69780;BME280;57052;55.602;38.096;2023-02-13T12:16:35;99742.00;;;1.38;70.42
69780;BME280;57052;55.602;38.096;2023-02-13T12:19:04;99746.78;;;1.29;71.23
69780;BME280;57052;55.602;38.096;2023-02-13T12:21:43;99736.19;;;1.41;69.97
69780;BME280;57052;55.602;38.096;2023-02-13T12:26:51;99722.56;;;1.49;69.83
69780;BME280;57052;55.602;38.096;2023-02-13T12:38:30;99719.66;;;1.68;70.39
69780;BME280;57052;55.602;38.096;2023-02-13T12:45:41;99718.97;;;1.73;70.36
69780;BME280;57052;55.602;38.096;2023-02-13T12:53:56;99710.53;;;1.76;70.57
69780;BME280;57052;55.602;38.096;2023-02-13T12:59:28;99705.63;;;1.73;70.76
69780;BME280;57052;55.602;38.096;2023-02-13T13:05:23;99698.94;;;1.70;71.63
69780;BME280;57052;55.602;38.096;2023-02-13T13:10:32;99663.72;;;1.62;71.17
69780;BME280;57052;55.602;38.096;2023-02-13T13:15:39;99678.84;;;1.68;72.18
69780;BME280;57052;55.602;38.096;2023-02-13T13:21:38;99663.88;;;1.67;72.99
69780;BME280;57052;55.602;38.096;2023-02-13T13:26:55;99676.53;;;1.71;71.96
69780;BME280;57052;55.602;38.096;2023-02-13T13:29:38;99683.72;;;1.71;71.91
69780;BME280;57052;55.602;38.096;2023-02-13T13:32:06;99670.84;;;1.68;71.93
69780;BME280;57052;55.602;38.096;2023-02-13T13:34:34;99668.97;;;1.68;72.56
69780;BME280;57052;55.602;38.096;2023-02-13T13:45:05;99686.97;;;1.73;72.76
69780;BME280;57052;55.602;38.096;2023-02-13T13:50:32;99681.19;;;1.76;72.41
69780;BME280;57052;55.602;38.096;2023-02-13T13:53:09;99671.31;;;1.76;73.09
69780;BME280;57052;55.602;38.096;2023-02-13T13:58:45;99672.50;;;1.80;73.13
69780;BME280;57052;55.602;38.096;2023-02-13T14:01:22;99665.31;;;1.81;72.58
69780;BME280;57052;55.602;38.096;2023-02-13T14:03:59;99653.22;;;1.78;72.63
69780;BME280;57052;55.602;38.096;2023-02-13T14:11:54;99643.66;;;1.89;72.20
69780;BME280;57052;55.602;38.096;2023-02-13T14:16:56;99652.22;;;1.91;72.37
69780;BME280;57052;55.602;38.096;2023-02-13T14:19:33;99641.66;;;1.84;73.08
69780;BME280;57052;55.602;38.096;2023-02-13T14:27:24;99618.91;;;1.82;72.79
69780;BME280;57052;55.602;38.096;2023-02-13T14:29:53;99629.41;;;1.95;72.49
69780;BME280;57052;55.602;38.096;2023-02-13T14:32:38;99615.69;;;1.91;73.16
69780;BME280;57052;55.602;38.096;2023-02-13T14:35:23;99607.69;;;1.91;72.67
69780;BME280;57052;55.602;38.096;2023-02-13T14:37:59;99610.47;;;1.97;72.78
69780;BME280;57052;55.602;38.096;2023-02-13T14:40:45;99603.06;;;1.99;72.15
69780;BME280;57052;55.602;38.096;2023-02-13T14:43:37;99621.75;;;1.99;72.39
69780;BME280;57052;55.602;38.096;2023-02-13T14:49:13;99606.66;;;1.92;72.67
69780;BME280;57052;55.602;38.096;2023-02-13T14:51:47;99604.13;;;1.98;71.92
69780;BME280;57052;55.602;38.096;2023-02-13T14:56:49;99604.13;;;1.98;72.23
69780;BME280;57052;55.602;38.096;2023-02-13T14:59:25;99592.38;;;1.99;72.33
69780;BME280;57052;55.602;38.096;2023-02-13T15:02:03;99551.97;;;1.72;72.58
69780;BME280;57052;55.602;38.096;2023-02-13T15:04:41;99585.66;;;1.96;72.76
69780;BME280;57052;55.602;38.096;2023-02-13T15:07:18;99572.09;;;1.98;72.49
69780;BME280;57052;55.602;38.096;2023-02-13T15:09:56;99554.88;;;1.93;72.14
69780;BME280;57052;55.602;38.096;2023-02-13T15:12:32;99561.41;;;1.98;72.02
69780;BME280;57052;55.602;38.096;2023-02-13T15:14:58;99554.44;;;1.97;72.31
69780;BME280;57052;55.602;38.096;2023-02-13T15:17:32;99547.81;;;1.99;71.78
69780;BME280;57052;55.602;38.096;2023-02-13T15:22:45;99541.22;;;1.90;72.19
69780;BME280;57052;55.602;38.096;2023-02-13T15:25:33;99533.53;;;1.82;72.42
69780;BME280;57052;55.602;38.096;2023-02-13T15:28:02;99524.47;;;1.83;72.30
69780;BME280;57052;55.602;38.096;2023-02-13T15:30:36;99515.56;;;1.89;73.10